sensor_id;sensor_type;location;lat;lon;timestamp;pressure;altitude;pressure_sealevel;temperature;humidity
59106;BME280;44891;50.204;8.132;2023-05-29T00:02:10;98509.94;;;12.22;76.81
59106;BME280;44891;50.204;8.132;2023-05-29T00:06:13;98509.34;;;12.37;75.54
59106;BME280;44891;50.204;8.132;2023-05-29T00:10:16;98501.88;;;12.12;77.29
59106;BME280;44891;50.204;8.132;2023-05-29T00:14:18;98507.38;;;12.11;77.05
59106;BME280;44891;50.204;8.132;2023-05-29T00:18:20;98504.03;;;12.15;76.41
59106;BME280;44891;50.204;8.132;2023-05-29T00:22:22;98498.13;;;12.08;76.32
59106;BME280;44891;50.204;8.132;2023-05-29T00:26:25;98493.91;;;11.45;79.61
59106;BME280;44891;50.204;8.132;2023-05-29T00:30:29;98490.94;;;11.41;80.06
59106;BME280;44891;50.204;8.132;2023-05-29T00:34:31;98498.72;;;11.65;79.01
59106;BME280;44891;50.204;8.132;2023-05-29T00:38:33;98507.47;;;11.82;77.87
59106;BME280;44891;50.204;8.132;2023-05-29T00:42:36;98498.63;;;11.43;79.12
59106;BME280;44891;50.204;8.132;2023-05-29T00:46:38;98498.94;;;11.47;79.30
59106;BME280;44891;50.204;8.132;2023-05-29T00:50:40;98495.13;;;11.54;78.27
59106;BME280;44891;50.204;8.132;2023-05-29T00:54:42;98496.50;;;11.74;77.15
59106;BME280;44891;50.204;8.132;2023-05-29T00:58:45;98502.94;;;11.66;76.95
59106;BME280;44891;50.204;8.132;2023-05-29T01:02:48;98497.59;;;11.61;76.87
59106;BME280;44891;50.204;8.132;2023-05-29T01:06:53;98490.22;;;11.29;78.97
59106;BME280;44891;50.204;8.132;2023-05-29T01:10:56;98500.31;;;11.49;77.27
59106;BME280;44891;50.204;8.132;2023-05-29T01:15:15;98501.97;;;11.55;76.78
59106;BME280;44891;50.204;8.132;2023-05-29T01:19:21;98507.38;;;11.49;76.47
59106;BME280;44891;50.204;8.132;2023-05-29T01:23:31;98513.41;;;11.32;77.42
59106;BME280;44891;50.204;8.132;2023-05-29T01:27:39;98513.50;;;11.37;76.97
59106;BME280;44891;50.204;8.132;2023-05-29T01:31:43;98507.53;;;11.13;78.05
59106;BME280;44891;50.204;8.132;2023-05-29T01:35:45;98511.56;;;11.04;78.24
59106;BME280;44891;50.204;8.132;2023-05-29T01:39:47;98507.63;;;10.90;78.51
59106;BME280;44891;50.204;8.132;2023-05-29T01:43:51;98501.50;;;10.49;81.81
59106;BME280;44891;50.204;8.132;2023-05-29T01:47:54;98508.09;;;10.75;80.89
59106;BME280;44891;50.204;8.132;2023-05-29T01:51:57;98494.69;;;10.88;79.61
59106;BME280;44891;50.204;8.132;2023-05-29T01:55:59;98487.81;;;10.35;82.85
59106;BME280;44891;50.204;8.132;2023-05-29T02:00:03;98489.50;;;10.65;81.50
59106;BME280;44891;50.204;8.132;2023-05-29T02:04:15;98493.97;;;10.65;80.78
59106;BME280;44891;50.204;8.132;2023-05-29T02:08:17;98499.72;;;10.50;79.84
59106;BME280;44891;50.204;8.132;2023-05-29T02:12:18;98494.56;;;10.31;81.07
59106;BME280;44891;50.204;8.132;2023-05-29T02:16:22;98491.22;;;9.77;84.00
59106;BME280;44891;50.204;8.132;2023-05-29T02:20:23;98487.38;;;10.27;82.97
59106;BME280;44891;50.204;8.132;2023-05-29T02:24:25;98501.75;;;10.36;80.08
59106;BME280;44891;50.204;8.132;2023-05-29T02:28:27;98492.75;;;10.32;79.64
59106;BME280;44891;50.204;8.132;2023-05-29T02:32:30;98488.66;;;10.24;79.84
59106;BME280;44891;50.204;8.132;2023-05-29T02:36:33;98488.66;;;10.24;80.18
59106;BME280;44891;50.204;8.132;2023-05-29T02:40:37;98485.72;;;9.79;83.84
59106;BME280;44891;50.204;8.132;2023-05-29T02:44:39;98484.38;;;9.88;82.82
59106;BME280;44891;50.204;8.132;2023-05-29T02:48:42;98488.81;;;9.99;81.81
59106;BME280;44891;50.204;8.132;2023-05-29T02:52:46;98482.91;;;9.50;83.93
59106;BME280;44891;50.204;8.132;2023-05-29T02:56:48;98488.06;;;9.45;83.52
59106;BME280;44891;50.204;8.132;2023-05-29T03:00:50;98503.31;;;9.48;83.19
59106;BME280;44891;50.204;8.132;2023-05-29T03:04:55;98508.97;;;9.75;82.32
59106;BME280;44891;50.204;8.132;2023-05-29T03:08:57;98512.69;;;9.56;83.02
59106;BME280;44891;50.204;8.132;2023-05-29T03:13:00;98514.38;;;9.50;83.53
59106;BME280;44891;50.204;8.132;2023-05-29T03:17:03;98512.38;;;9.64;81.83
59106;BME280;44891;50.204;8.132;2023-05-29T03:21:07;98520.56;;;9.56;80.88
59106;BME280;44891;50.204;8.132;2023-05-29T03:25:09;98522.13;;;9.45;81.16
59106;BME280;44891;50.204;8.132;2023-05-29T03:29:11;98511.09;;;9.55;81.31
59106;BME280;44891;50.204;8.132;2023-05-29T03:33:13;98511.66;;;9.57;80.86
59106;BME280;44891;50.204;8.132;2023-05-29T03:37:48;98511.75;;;9.39;82.60
59106;BME280;44891;50.204;8.132;2023-05-29T03:41:50;98516.38;;;9.37;82.30
59106;BME280;44891;50.204;8.132;2023-05-29T03:45:53;98511.66;;;8.97;84.58
59106;BME280;44891;50.204;8.132;2023-05-29T03:49:55;98515.91;;;9.28;83.97
59106;BME280;44891;50.204;8.132;2023-05-29T03:53:58;98527.81;;;9.42;83.58
59106;BME280;44891;50.204;8.132;2023-05-29T03:58:00;98525.22;;;9.54;82.38
59106;BME280;44891;50.204;8.132;2023-05-29T04:02:02;98533.47;;;9.69;80.78
59106;BME280;44891;50.204;8.132;2023-05-29T04:06:04;98537.59;;;9.65;80.96
59106;BME280;44891;50.204;8.132;2023-05-29T04:10:09;98541.06;;;9.47;81.89
59106;BME280;44891;50.204;8.132;2023-05-29T04:14:11;98554.53;;;9.63;80.89
59106;BME280;44891;50.204;8.132;2023-05-29T04:18:12;98563.63;;;9.78;80.43
59106;BME280;44891;50.204;8.132;2023-05-29T04:22:15;98567.03;;;9.79;81.22
59106;BME280;44891;50.204;8.132;2023-05-29T04:26:19;98574.63;;;9.99;81.20
59106;BME280;44891;50.204;8.132;2023-05-29T04:30:21;98583.75;;;10.08;80.09
59106;BME280;44891;50.204;8.132;2023-05-29T04:34:23;98592.19;;;10.10;80.13
59106;BME280;44891;50.204;8.132;2023-05-29T04:38:25;98603.06;;;10.14;79.30
59106;BME280;44891;50.204;8.132;2023-05-29T04:42:30;98561.63;;;10.04;79.28
59106;BME280;44891;50.204;8.132;2023-05-29T04:46:34;98607.75;;;10.23;79.82
59106;BME280;44891;50.204;8.132;2023-05-29T04:50:36;98613.53;;;10.44;79.68
59106;BME280;44891;50.204;8.132;2023-05-29T04:54:40;98616.94;;;10.56;80.14
59106;BME280;44891;50.204;8.132;2023-05-29T04:58:44;98619.56;;;10.68;80.56
59106;BME280;44891;50.204;8.132;2023-05-29T05:02:47;98628.38;;;10.73;81.37
59106;BME280;44891;50.204;8.132;2023-05-29T05:06:49;98631.78;;;10.74;82.10
59106;BME280;44891;50.204;8.132;2023-05-29T05:10:52;98639.44;;;11.10;81.07
59106;BME280;44891;50.204;8.132;2023-05-29T05:14:56;98637.50;;;11.18;80.74
59106;BME280;44891;50.204;8.132;2023-05-29T05:18:59;98640.25;;;11.51;79.73
59106;BME280;44891;50.204;8.132;2023-05-29T05:23:01;98639.66;;;11.61;79.71
59106;BME280;44891;50.204;8.132;2023-05-29T05:27:03;98643.59;;;11.75;79.52
59106;BME280;44891;50.204;8.132;2023-05-29T05:31:07;98641.91;;;12.09;77.66
59106;BME280;44891;50.204;8.132;2023-05-29T05:35:09;98638.97;;;12.22;78.16
59106;BME280;44891;50.204;8.132;2023-05-29T05:39:12;98638.56;;;12.47;78.46
59106;BME280;44891;50.204;8.132;2023-05-29T05:43:15;98632.72;;;12.79;77.63
59106;BME280;44891;50.204;8.132;2023-05-29T05:47:41;98634.84;;;12.99;78.89
59106;BME280;44891;50.204;8.132;2023-05-29T05:51:43;98624.19;;;13.27;77.71
59106;BME280;44891;50.204;8.132;2023-05-29T05:55:46;98628.56;;;13.66;79.51
59106;BME280;44891;50.204;8.132;2023-05-29T05:59:48;98635.16;;;13.90;80.44
59106;BME280;44891;50.204;8.132;2023-05-29T06:03:51;98627.97;;;14.12;78.81
59106;BME280;44891;50.204;8.132;2023-05-29T06:07:54;98633.94;;;14.30;78.55
59106;BME280;44891;50.204;8.132;2023-05-29T06:11:56;98632.19;;;14.46;77.32
59106;BME280;44891;50.204;8.132;2023-05-29T06:15:58;98602.81;;;14.37;76.28
59106;BME280;44891;50.204;8.132;2023-05-29T06:20:01;98646.47;;;14.77;76.45
59106;BME280;44891;50.204;8.132;2023-05-29T06:24:05;98654.50;;;14.92;76.95
59106;BME280;44891;50.204;8.132;2023-05-29T06:28:07;98648.50;;;15.02;76.09
59106;BME280;44891;50.204;8.132;2023-05-29T06:32:09;98648.56;;;15.17;75.03
59106;BME280;44891;50.204;8.132;2023-05-29T06:36:12;98645.78;;;15.39;73.74
59106;BME280;44891;50.204;8.132;2023-05-29T06:40:14;98653.72;;;15.44;72.76
59106;BME280;44891;50.204;8.132;2023-05-29T06:44:16;98650.13;;;15.70;72.50
59106;BME280;44891;50.204;8.132;2023-05-29T06:48:18;98649.38;;;15.90;73.43
59106;BME280;44891;50.204;8.132;2023-05-29T06:52:23;98652.34;;;15.99;70.49
59106;BME280;44891;50.204;8.132;2023-05-29T06:56:45;98663.22;;;16.23;70.49
59106;BME280;44891;50.204;8.132;2023-05-29T07:00:48;98662.72;;;16.31;69.68
59106;BME280;44891;50.204;8.132;2023-05-29T07:05:02;98652.63;;;16.33;68.87
59106;BME280;44891;50.204;8.132;2023-05-29T07:09:07;98667.75;;;16.48;68.68
59106;BME280;44891;50.204;8.132;2023-05-29T07:13:09;98663.00;;;16.70;68.61
59106;BME280;44891;50.204;8.132;2023-05-29T07:17:11;98668.28;;;16.65;66.93
59106;BME280;44891;50.204;8.132;2023-05-29T07:21:13;98674.38;;;16.76;67.92
59106;BME280;44891;50.204;8.132;2023-05-29T07:25:17;98680.97;;;17.09;67.63
59106;BME280;44891;50.204;8.132;2023-05-29T07:29:19;98676.69;;;17.28;66.67
59106;BME280;44891;50.204;8.132;2023-05-29T07:33:23;98667.63;;;17.39;65.45
59106;BME280;44891;50.204;8.132;2023-05-29T07:37:27;98679.56;;;17.42;65.32
59106;BME280;44891;50.204;8.132;2023-05-29T07:41:32;98677.47;;;17.39;66.31
59106;BME280;44891;50.204;8.132;2023-05-29T07:45:34;98677.69;;;17.48;64.29
59106;BME280;44891;50.204;8.132;2023-05-29T07:49:36;98679.44;;;17.83;63.87
59106;BME280;44891;50.204;8.132;2023-05-29T07:53:39;98684.38;;;18.00;64.57
59106;BME280;44891;50.204;8.132;2023-05-29T07:57:42;98673.09;;;18.18;63.92
59106;BME280;44891;50.204;8.132;2023-05-29T08:01:44;98640.28;;;17.99;62.43
59106;BME280;44891;50.204;8.132;2023-05-29T08:06:03;98679.53;;;18.12;62.59
59106;BME280;44891;50.204;8.132;2023-05-29T08:10:07;98680.13;;;18.43;61.15
59106;BME280;44891;50.204;8.132;2023-05-29T08:14:10;98682.19;;;18.51;61.26
59106;BME280;44891;50.204;8.132;2023-05-29T08:18:14;98677.44;;;18.82;59.51
59106;BME280;44891;50.204;8.132;2023-05-29T08:22:15;98671.63;;;18.75;58.77
59106;BME280;44891;50.204;8.132;2023-05-29T08:26:17;98671.19;;;18.92;61.06
59106;BME280;44891;50.204;8.132;2023-05-29T08:30:20;98671.84;;;19.32;58.27
59106;BME280;44891;50.204;8.132;2023-05-29T08:34:22;98671.56;;;19.33;57.45
59106;BME280;44891;50.204;8.132;2023-05-29T08:38:24;98670.59;;;19.24;58.35
59106;BME280;44891;50.204;8.132;2023-05-29T08:42:29;98670.22;;;19.36;58.08
59106;BME280;44891;50.204;8.132;2023-05-29T08:46:35;98675.66;;;19.49;57.02
59106;BME280;44891;50.204;8.132;2023-05-29T08:50:39;98670.88;;;19.46;57.09
59106;BME280;44891;50.204;8.132;2023-05-29T08:54:43;98661.72;;;19.58;57.12
59106;BME280;44891;50.204;8.132;2023-05-29T08:58:45;98667.38;;;19.75;56.26
59106;BME280;44891;50.204;8.132;2023-05-29T09:02:49;98671.38;;;19.72;56.06
59106;BME280;44891;50.204;8.132;2023-05-29T09:06:53;98668.72;;;19.72;54.80
59106;BME280;44891;50.204;8.132;2023-05-29T09:10:56;98667.88;;;19.96;54.53
59106;BME280;44891;50.204;8.132;2023-05-29T09:14:58;98663.97;;;20.07;54.40
59106;BME280;44891;50.204;8.132;2023-05-29T09:19:05;98670.25;;;20.35;53.46
59106;BME280;44891;50.204;8.132;2023-05-29T09:23:08;98672.03;;;20.58;53.61
59106;BME280;44891;50.204;8.132;2023-05-29T09:27:10;98666.94;;;20.76;51.66
59106;BME280;44891;50.204;8.132;2023-05-29T09:31:13;98665.53;;;20.78;52.47
59106;BME280;44891;50.204;8.132;2023-05-29T09:35:20;98669.88;;;21.07;51.72
59106;BME280;44891;50.204;8.132;2023-05-29T09:39:22;98634.34;;;21.20;50.27
59106;BME280;44891;50.204;8.132;2023-05-29T09:43:25;98678.84;;;21.11;51.40
59106;BME280;44891;50.204;8.132;2023-05-29T09:47:27;98667.06;;;21.26;51.43
59106;BME280;44891;50.204;8.132;2023-05-29T09:51:35;98659.41;;;21.38;49.75
59106;BME280;44891;50.204;8.132;2023-05-29T09:55:37;98665.00;;;21.64;50.08
59106;BME280;44891;50.204;8.132;2023-05-29T09:59:40;98657.81;;;21.51;49.63
59106;BME280;44891;50.204;8.132;2023-05-29T10:03:44;98656.00;;;21.74;49.33
59106;BME280;44891;50.204;8.132;2023-05-29T10:07:48;98662.59;;;21.90;49.80
59106;BME280;44891;50.204;8.132;2023-05-29T10:11:53;98663.69;;;21.89;48.54
59106;BME280;44891;50.204;8.132;2023-05-29T10:15:58;98657.31;;;21.98;48.20
59106;BME280;44891;50.204;8.132;2023-05-29T10:20:01;98663.16;;;22.14;49.26
59106;BME280;44891;50.204;8.132;2023-05-29T10:24:08;98674.22;;;22.21;47.35
59106;BME280;44891;50.204;8.132;2023-05-29T10:28:10;98666.75;;;22.32;46.55
59106;BME280;44891;50.204;8.132;2023-05-29T10:32:15;98660.72;;;22.27;46.51
59106;BME280;44891;50.204;8.132;2023-05-29T10:36:21;98661.63;;;22.67;47.15
59106;BME280;44891;50.204;8.132;2023-05-29T10:40:26;98654.56;;;23.02;44.92
59106;BME280;44891;50.204;8.132;2023-05-29T10:44:37;98653.31;;;22.99;43.02
59106;BME280;44891;50.204;8.132;2023-05-29T10:48:42;98657.94;;;23.16;44.11
59106;BME280;44891;50.204;8.132;2023-05-29T10:52:45;98645.78;;;23.10;38.80
59106;BME280;44891;50.204;8.132;2023-05-29T10:56:52;98654.41;;;23.38;39.59
59106;BME280;44891;50.204;8.132;2023-05-29T11:00:56;98650.09;;;23.28;37.40
59106;BME280;44891;50.204;8.132;2023-05-29T11:05:06;98657.53;;;23.31;38.43
59106;BME280;44891;50.204;8.132;2023-05-29T11:09:11;98659.34;;;23.62;39.80
59106;BME280;44891;50.204;8.132;2023-05-29T11:13:32;98650.63;;;23.56;39.14
59106;BME280;44891;50.204;8.132;2023-05-29T11:17:44;98642.91;;;23.55;40.49
59106;BME280;44891;50.204;8.132;2023-05-29T11:21:53;98639.50;;;23.80;40.31
59106;BME280;44891;50.204;8.132;2023-05-29T11:25:59;98621.66;;;23.67;39.14
59106;BME280;44891;50.204;8.132;2023-05-29T11:30:02;98630.19;;;23.95;41.03
59106;BME280;44891;50.204;8.132;2023-05-29T11:34:06;98623.25;;;24.20;36.65
59106;BME280;44891;50.204;8.132;2023-05-29T11:38:10;98623.09;;;24.34;38.83
59106;BME280;44891;50.204;8.132;2023-05-29T11:42:12;98625.44;;;24.27;38.75
59106;BME280;44891;50.204;8.132;2023-05-29T11:46:17;98629.09;;;24.22;38.10
59106;BME280;44891;50.204;8.132;2023-05-29T11:50:19;98613.63;;;24.02;37.54
59106;BME280;44891;50.204;8.132;2023-05-29T11:54:21;98617.09;;;24.20;37.38
59106;BME280;44891;50.204;8.132;2023-05-29T11:58:23;98615.84;;;24.43;37.21
59106;BME280;44891;50.204;8.132;2023-05-29T12:02:26;98622.16;;;24.38;35.07
59106;BME280;44891;50.204;8.132;2023-05-29T12:06:31;98616.22;;;24.71;34.37
59106;BME280;44891;50.204;8.132;2023-05-29T12:10:34;98612.34;;;24.98;33.93
59106;BME280;44891;50.204;8.132;2023-05-29T12:14:36;98617.84;;;25.02;34.28
59106;BME280;44891;50.204;8.132;2023-05-29T12:18:39;98607.19;;;24.84;34.03
59106;BME280;44891;50.204;8.132;2023-05-29T12:22:41;98610.41;;;25.07;34.67
59106;BME280;44891;50.204;8.132;2023-05-29T12:26:43;98605.81;;;24.61;33.58
59106;BME280;44891;50.204;8.132;2023-05-29T12:30:47;98600.94;;;25.01;33.86
59106;BME280;44891;50.204;8.132;2023-05-29T12:34:51;98602.13;;;25.21;34.94
59106;BME280;44891;50.204;8.132;2023-05-29T12:38:53;98611.91;;;25.26;33.73
59106;BME280;44891;50.204;8.132;2023-05-29T12:42:58;98611.84;;;25.34;33.48
59106;BME280;44891;50.204;8.132;2023-05-29T12:47:01;98615.94;;;25.40;33.59
59106;BME280;44891;50.204;8.132;2023-05-29T12:51:05;98615.28;;;25.43;33.36
59106;BME280;44891;50.204;8.132;2023-05-29T12:55:08;98609.25;;;25.67;32.62
59106;BME280;44891;50.204;8.132;2023-05-29T12:59:10;98603.56;;;25.69;31.75
59106;BME280;44891;50.204;8.132;2023-05-29T13:03:12;98606.22;;;25.78;32.14
59106;BME280;44891;50.204;8.132;2023-05-29T13:07:16;98609.13;;;25.64;32.85
59106;BME280;44891;50.204;8.132;2023-05-29T13:11:18;98601.41;;;25.62;33.03
59106;BME280;44891;50.204;8.132;2023-05-29T13:15:20;98606.81;;;25.83;31.85
59106;BME280;44891;50.204;8.132;2023-05-29T13:19:22;98598.31;;;25.93;33.28
59106;BME280;44891;50.204;8.132;2023-05-29T13:23:26;98597.94;;;26.03;33.65
59106;BME280;44891;50.204;8.132;2023-05-29T13:27:27;98599.13;;;25.73;32.26
59106;BME280;44891;50.204;8.132;2023-05-29T13:31:29;98601.53;;;26.08;33.47
59106;BME280;44891;50.204;8.132;2023-05-29T13:35:31;98592.22;;;26.05;33.03
59106;BME280;44891;50.204;8.132;2023-05-29T13:39:34;98595.34;;;26.28;33.56
59106;BME280;44891;50.204;8.132;2023-05-29T13:43:36;98600.19;;;26.35;33.94
59106;BME280;44891;50.204;8.132;2023-05-29T13:47:38;98598.47;;;26.30;33.55
59106;BME280;44891;50.204;8.132;2023-05-29T13:51:40;98603.31;;;26.03;33.74
59106;BME280;44891;50.204;8.132;2023-05-29T13:55:43;98601.81;;;26.27;32.85
59106;BME280;44891;50.204;8.132;2023-05-29T13:59:45;98600.53;;;26.12;33.10
59106;BME280;44891;50.204;8.132;2023-05-29T14:03:47;98593.13;;;25.88;32.99
59106;BME280;44891;50.204;8.132;2023-05-29T14:07:49;98587.16;;;26.37;33.13
59106;BME280;44891;50.204;8.132;2023-05-29T14:11:52;98574.00;;;26.23;33.22
59106;BME280;44891;50.204;8.132;2023-05-29T14:15:54;98586.19;;;26.20;33.46
59106;BME280;44891;50.204;8.132;2023-05-29T14:19:57;98576.75;;;26.02;32.56
59106;BME280;44891;50.204;8.132;2023-05-29T14:24:01;98571.94;;;25.87;34.31
59106;BME280;44891;50.204;8.132;2023-05-29T14:28:04;98569.75;;;26.01;34.67
59106;BME280;44891;50.204;8.132;2023-05-29T14:32:07;98582.84;;;26.23;32.66
59106;BME280;44891;50.204;8.132;2023-05-29T14:36:08;98575.47;;;25.99;33.43
59106;BME280;44891;50.204;8.132;2023-05-29T14:40:11;98575.13;;;26.01;33.56
59106;BME280;44891;50.204;8.132;2023-05-29T14:44:14;98572.72;;;26.08;33.62
59106;BME280;44891;50.204;8.132;2023-05-29T14:48:16;98580.94;;;26.24;33.33
59106;BME280;44891;50.204;8.132;2023-05-29T14:52:18;98572.44;;;26.22;33.34
59106;BME280;44891;50.204;8.132;2023-05-29T14:56:20;98572.78;;;26.33;33.14
59106;BME280;44891;50.204;8.132;2023-05-29T15:00:23;98574.00;;;26.23;33.45
59106;BME280;44891;50.204;8.132;2023-05-29T15:04:25;98576.09;;;26.17;33.62
59106;BME280;44891;50.204;8.132;2023-05-29T15:08:27;98564.44;;;26.25;34.12
59106;BME280;44891;50.204;8.132;2023-05-29T15:12:32;98576.75;;;26.14;34.29
59106;BME280;44891;50.204;8.132;2023-05-29T15:16:35;98572.63;;;26.17;34.10
59106;BME280;44891;50.204;8.132;2023-05-29T15:20:37;98577.22;;;25.83;34.21
59106;BME280;44891;50.204;8.132;2023-05-29T15:24:38;98584.16;;;25.84;35.27
59106;BME280;44891;50.204;8.132;2023-05-29T15:28:40;98571.88;;;25.54;35.27
59106;BME280;44891;50.204;8.132;2023-05-29T15:32:44;98569.97;;;25.54;35.39
59106;BME280;44891;50.204;8.132;2023-05-29T15:36:46;98568.09;;;25.75;35.56
59106;BME280;44891;50.204;8.132;2023-05-29T15:40:48;98559.34;;;25.58;35.72
59106;BME280;44891;50.204;8.132;2023-05-29T15:44:51;98562.06;;;25.28;35.53
59106;BME280;44891;50.204;8.132;2023-05-29T15:48:54;98560.97;;;25.50;35.10
59106;BME280;44891;50.204;8.132;2023-05-29T15:52:56;98572.25;;;25.23;35.02
59106;BME280;44891;50.204;8.132;2023-05-29T15:56:58;98567.97;;;25.21;35.35
59106;BME280;44891;50.204;8.132;2023-05-29T16:01:02;98567.00;;;25.26;35.91
59106;BME280;44891;50.204;8.132;2023-05-29T16:05:06;98568.06;;;24.95;35.78
59106;BME280;44891;50.204;8.132;2023-05-29T16:09:08;98565.09;;;24.97;35.42
59106;BME280;44891;50.204;8.132;2023-05-29T16:13:10;98568.84;;;24.66;36.62
59106;BME280;44891;50.204;8.132;2023-05-29T16:17:12;98565.03;;;24.67;35.87
59106;BME280;44891;50.204;8.132;2023-05-29T16:21:15;98568.75;;;24.46;37.14
59106;BME280;44891;50.204;8.132;2023-05-29T16:25:17;98564.81;;;24.43;37.35
59106;BME280;44891;50.204;8.132;2023-05-29T16:29:18;98569.09;;;24.44;36.27
59106;BME280;44891;50.204;8.132;2023-05-29T16:33:20;98565.75;;;24.47;36.45
59106;BME280;44891;50.204;8.132;2023-05-29T16:37:24;98567.19;;;24.45;36.64
59106;BME280;44891;50.204;8.132;2023-05-29T16:41:26;98563.22;;;24.51;36.00
59106;BME280;44891;50.204;8.132;2023-05-29T16:45:27;98560.03;;;24.49;36.76
59106;BME280;44891;50.204;8.132;2023-05-29T16:49:29;98562.94;;;24.35;37.05
59106;BME280;44891;50.204;8.132;2023-05-29T16:53:32;98568.00;;;24.19;38.20
59106;BME280;44891;50.204;8.132;2023-05-29T16:57:34;98567.25;;;23.84;38.27
59106;BME280;44891;50.204;8.132;2023-05-29T17:01:38;98561.25;;;23.78;39.26
59106;BME280;44891;50.204;8.132;2023-05-29T17:05:39;98553.03;;;23.75;39.49
59106;BME280;44891;50.204;8.132;2023-05-29T17:09:43;98549.28;;;23.67;39.45
59106;BME280;44891;50.204;8.132;2023-05-29T17:13:45;98554.00;;;23.62;39.82
59106;BME280;44891;50.204;8.132;2023-05-29T17:17:47;98556.75;;;23.30;40.63
59106;BME280;44891;50.204;8.132;2023-05-29T17:21:49;98561.19;;;23.26;40.63
59106;BME280;44891;50.204;8.132;2023-05-29T17:25:53;98561.50;;;23.25;41.38
59106;BME280;44891;50.204;8.132;2023-05-29T17:29:55;98564.47;;;23.15;41.21
59106;BME280;44891;50.204;8.132;2023-05-29T17:33:57;98569.81;;;23.06;41.71
59106;BME280;44891;50.204;8.132;2023-05-29T17:37:59;98570.72;;;22.62;42.00
59106;BME280;44891;50.204;8.132;2023-05-29T17:42:03;98570.81;;;22.48;42.47
59106;BME280;44891;50.204;8.132;2023-05-29T17:46:05;98582.06;;;22.36;42.96
59106;BME280;44891;50.204;8.132;2023-05-29T17:50:07;98587.91;;;22.38;43.39
59106;BME280;44891;50.204;8.132;2023-05-29T17:54:09;98590.50;;;22.21;44.04
59106;BME280;44891;50.204;8.132;2023-05-29T17:58:13;98585.09;;;22.12;43.97
59106;BME280;44891;50.204;8.132;2023-05-29T18:02:15;98589.34;;;22.13;44.40
59106;BME280;44891;50.204;8.132;2023-05-29T18:06:17;98593.50;;;22.06;44.83
59106;BME280;44891;50.204;8.132;2023-05-29T18:10:19;98589.97;;;21.96;45.43
59106;BME280;44891;50.204;8.132;2023-05-29T18:14:24;98601.50;;;21.83;45.61
59106;BME280;44891;50.204;8.132;2023-05-29T18:18:26;98594.13;;;21.66;46.22
59106;BME280;44891;50.204;8.132;2023-05-29T18:22:28;98592.56;;;21.52;46.87
59106;BME280;44891;50.204;8.132;2023-05-29T18:26:30;98591.31;;;21.22;47.39
59106;BME280;44891;50.204;8.132;2023-05-29T18:30:33;98591.50;;;21.25;47.92
59106;BME280;44891;50.204;8.132;2023-05-29T18:34:36;98598.31;;;21.17;47.79
59106;BME280;44891;50.204;8.132;2023-05-29T18:38:38;98601.69;;;20.96;48.35
59106;BME280;44891;50.204;8.132;2023-05-29T18:42:41;98604.84;;;20.84;49.33
59106;BME280;44891;50.204;8.132;2023-05-29T18:46:44;98615.97;;;20.58;49.91
59106;BME280;44891;50.204;8.132;2023-05-29T18:50:45;98617.31;;;20.42;50.24
59106;BME280;44891;50.204;8.132;2023-05-29T18:54:47;98621.84;;;20.42;50.53
59106;BME280;44891;50.204;8.132;2023-05-29T18:58:49;98616.19;;;20.10;51.66
59106;BME280;44891;50.204;8.132;2023-05-29T19:02:52;98622.69;;;20.04;51.70
59106;BME280;44891;50.204;8.132;2023-05-29T19:06:54;98625.53;;;19.94;51.94
59106;BME280;44891;50.204;8.132;2023-05-29T19:10:57;98632.06;;;19.83;52.04
59106;BME280;44891;50.204;8.132;2023-05-29T19:14:59;98638.28;;;19.54;52.76
59106;BME280;44891;50.204;8.132;2023-05-29T19:19:03;98639.03;;;19.60;52.82
59106;BME280;44891;50.204;8.132;2023-05-29T19:23:05;98649.84;;;19.45;53.26
59106;BME280;44891;50.204;8.132;2023-05-29T19:27:07;98655.09;;;19.31;53.46
59106;BME280;44891;50.204;8.132;2023-05-29T19:31:11;98665.22;;;19.29;53.34
59106;BME280;44891;50.204;8.132;2023-05-29T19:35:14;98673.91;;;19.16;53.91
59106;BME280;44891;50.204;8.132;2023-05-29T19:39:16;98673.88;;;18.92;54.86
59106;BME280;44891;50.204;8.132;2023-05-29T19:43:18;98671.28;;;18.82;55.63
59106;BME280;44891;50.204;8.132;2023-05-29T19:47:20;98683.69;;;18.62;56.30
59106;BME280;44891;50.204;8.132;2023-05-29T19:51:23;98688.41;;;18.76;55.83
59106;BME280;44891;50.204;8.132;2023-05-29T19:55:25;98694.03;;;18.69;55.44
59106;BME280;44891;50.204;8.132;2023-05-29T19:59:26;98693.63;;;18.46;56.27
59106;BME280;44891;50.204;8.132;2023-05-29T20:03:28;98705.69;;;18.34;56.56
59106;BME280;44891;50.204;8.132;2023-05-29T20:07:33;98705.69;;;18.34;56.09
59106;BME280;44891;50.204;8.132;2023-05-29T20:11:35;98715.94;;;18.16;56.58
59106;BME280;44891;50.204;8.132;2023-05-29T20:15:37;98717.50;;;18.17;56.19
59106;BME280;44891;50.204;8.132;2023-05-29T20:19:39;98715.75;;;18.03;56.26
59106;BME280;44891;50.204;8.132;2023-05-29T20:23:44;98722.63;;;18.04;56.38
59106;BME280;44891;50.204;8.132;2023-05-29T20:27:46;98719.78;;;17.90;56.46
59106;BME280;44891;50.204;8.132;2023-05-29T20:31:48;98727.56;;;17.71;56.97
59106;BME280;44891;50.204;8.132;2023-05-29T20:35:49;98738.75;;;17.58;57.28
59106;BME280;44891;50.204;8.132;2023-05-29T20:39:53;98740.59;;;17.57;57.11
59106;BME280;44891;50.204;8.132;2023-05-29T20:43:54;98746.72;;;17.43;57.49
59106;BME280;44891;50.204;8.132;2023-05-29T20:47:56;98740.91;;;17.35;57.53
59106;BME280;44891;50.204;8.132;2023-05-29T20:51:58;98742.53;;;17.21;57.52
59106;BME280;44891;50.204;8.132;2023-05-29T20:56:02;98748.13;;;17.25;57.63
59106;BME280;44891;50.204;8.132;2023-05-29T21:00:04;98745.97;;;17.27;56.90
59106;BME280;44891;50.204;8.132;2023-05-29T21:04:12;98743.88;;;17.13;57.15
59106;BME280;44891;50.204;8.132;2023-05-29T21:08:14;98750.50;;;16.96;57.04
59106;BME280;44891;50.204;8.132;2023-05-29T21:12:18;98744.94;;;17.02;56.95
59106;BME280;44891;50.204;8.132;2023-05-29T21:16:20;98740.44;;;16.93;57.27
59106;BME280;44891;50.204;8.132;2023-05-29T21:20:22;98747.88;;;16.91;57.06
59106;BME280;44891;50.204;8.132;2023-05-29T21:24:24;98749.97;;;16.68;58.06
59106;BME280;44891;50.204;8.132;2023-05-29T21:28:28;98752.13;;;16.81;57.36